Time;durP1;ratioP1;P1;durP2;ratioP2;P2;SDS_P1;SDS_P2;PMS_P1;PMS_P2;Temp;Humidity;BMP_temperature;BMP_pressure;BME280_temperature;BME280_humidity;BME280_pressure;Samples;Min_cycle;Max_cycle;Signal;HPM_P1;HPM_P2
2022/06/09 00:01:02;;;;;;;1.13;0.70;;;15.10;99.90;;;;;;5100040;28;20212;-46
2022/06/09 00:03:36;;;;;;;0.90;0.60;;;15.10;99.90;;;;;;5100288;28;20416;-46
2022/06/09 00:06:03;;;;;;;2.70;0.77;;;15.20;99.90;;;;;;5099786;28;20451;-46
2022/06/09 00:08:29;;;;;;;1.30;0.90;;;15.20;99.90;;;;;;5100297;28;20449;-46
2022/06/09 00:11:00;;;;;;;1.00;0.77;;;15.20;99.90;;;;;;5099528;28;20522;-46
2022/06/09 00:13:25;;;;;;;1.13;0.77;;;15.20;99.90;;;;;;5099066;28;20424;-46
2022/06/09 00:15:51;;;;;;;1.10;0.83;;;15.20;99.90;;;;;;5098256;28;20906;-46
2022/06/09 00:18:17;;;;;;;1.87;0.70;;;15.30;99.90;;;;;;5081830;28;20196;-46
2022/06/09 00:20:43;;;;;;;1.30;0.90;;;15.30;99.90;;;;;;5098336;28;20483;-46
2022/06/09 00:23:09;;;;;;;1.73;1.07;;;15.30;99.90;;;;;;5099826;28;20818;-46
2022/06/09 00:25:35;;;;;;;1.20;0.60;;;15.30;99.90;;;;;;5098521;28;20189;-46
2022/06/09 00:28:01;;;;;;;1.30;0.90;;;15.20;99.90;;;;;;5097937;28;20211;-46
2022/06/09 00:30:27;;;;;;;3.30;1.10;;;15.20;99.90;;;;;;5097900;28;20433;-46
2022/06/09 00:32:52;;;;;;;2.33;1.10;;;15.20;99.90;;;;;;5098480;28;20407;-46
2022/06/09 00:35:19;;;;;;;3.80;0.90;;;15.10;99.90;;;;;;5097613;28;20177;-46
2022/06/09 00:37:44;;;;;;;3.33;0.90;;;15.00;99.90;;;;;;5097782;28;20563;-46
2022/06/09 00:40:13;;;;;;;1.63;0.60;;;14.90;99.90;;;;;;5098044;28;20525;-46
2022/06/09 00:42:38;;;;;;;8.70;0.90;;;14.90;99.90;;;;;;5099452;28;20421;-47
2022/06/09 00:45:25;;;;;;;3.10;1.20;;;14.80;99.90;;;;;;5098990;28;20431;-48
2022/06/09 00:47:52;;;;;;;1.53;0.80;;;14.80;99.90;;;;;;5099086;28;20170;-45
2022/06/09 00:50:20;;;;;;;1.40;1.13;;;14.80;99.90;;;;;;5098064;28;20852;-47
2022/06/09 00:52:51;;;;;;;1.10;0.60;;;14.70;99.90;;;;;;5098920;28;20431;-46
2022/06/09 00:55:20;;;;;;;2.57;1.00;;;14.70;99.90;;;;;;5097868;28;20437;-47
2022/06/09 00:57:50;;;;;;;1.30;0.67;;;14.70;99.90;;;;;;5097940;28;20407;-46
2022/06/09 01:00:23;;;;;;;1.20;0.80;;;14.70;99.90;;;;;;5097698;28;20923;-47
2022/06/09 01:02:50;;;;;;;1.10;0.53;;;14.70;99.90;;;;;;5097513;28;20685;-46
2022/06/09 01:05:19;;;;;;;1.03;0.63;;;14.70;99.90;;;;;;5097240;28;20753;-46
2022/06/09 01:07:48;;;;;;;1.83;0.60;;;14.70;99.90;;;;;;5098527;28;20407;-46
2022/06/09 01:10:14;;;;;;;1.50;0.70;;;14.60;99.90;;;;;;5097824;28;20419;-46
2022/06/09 01:12:42;;;;;;;1.67;0.60;;;14.60;99.90;;;;;;5098075;28;20411;-46
2022/06/09 01:15:32;;;;;;;1.63;0.60;;;14.60;99.90;;;;;;5097779;28;20879;-46
2022/06/09 01:18:07;;;;;;;0.90;0.60;;;14.60;99.90;;;;;;5097475;28;20439;-46
2022/06/09 01:20:57;;;;;;;1.00;0.67;;;14.60;99.90;;;;;;5098771;28;20410;-46
2022/06/09 01:23:31;;;;;;;1.97;0.90;;;14.50;99.90;;;;;;5098475;28;20497;-51
2022/06/09 01:26:00;;;;;;;0.90;0.60;;;14.60;99.90;;;;;;5098673;28;20408;-46
2022/06/09 01:28:53;;;;;;;2.27;0.70;;;14.60;99.90;;;;;;5098364;28;20477;-47
2022/06/09 01:31:29;;;;;;;1.30;0.60;;;14.60;99.90;;;;;;5098632;28;20406;-46
2022/06/09 01:34:15;;;;;;;1.93;1.03;;;14.60;99.90;;;;;;5096572;28;20422;-46
2022/06/09 01:37:02;;;;;;;1.20;0.70;;;14.60;99.90;;;;;;5097336;28;20505;-47
2022/06/09 01:39:44;;;;;;;3.40;1.00;;;14.60;99.90;;;;;;5097703;28;20410;-45
2022/06/09 01:42:36;;;;;;;1.50;0.80;;;14.60;99.90;;;;;;5096797;28;20430;-46
2022/06/09 01:45:08;;;;;;;1.70;0.70;;;14.50;99.90;;;;;;5096867;28;20826;-46
2022/06/09 01:47:53;;;;;;;1.40;0.77;;;14.50;99.90;;;;;;5097320;28;20733;-46
2022/06/09 01:50:44;;;;;;;0.90;0.50;;;14.50;99.90;;;;;;5097759;28;20411;-46
2022/06/09 01:53:14;;;;;;;6.33;1.27;;;14.50;99.90;;;;;;5097834;28;20429;-46
2022/06/09 01:55:44;;;;;;;1.93;0.80;;;14.50;99.90;;;;;;5095963;28;20568;-47
2022/06/09 01:58:13;;;;;;;2.83;1.20;;;14.60;99.90;;;;;;5095364;28;20517;-46
2022/06/09 02:00:39;;;;;;;1.00;0.70;;;14.60;99.90;;;;;;5096527;28;20415;-46
2022/06/09 02:03:08;;;;;;;2.10;0.93;;;14.60;99.90;;;;;;5096972;28;20689;-47
2022/06/09 02:05:40;;;;;;;1.27;0.77;;;14.60;99.90;;;;;;5095652;28;20458;-47
2022/06/09 02:08:14;;;;;;;1.43;0.90;;;14.70;99.90;;;;;;5097742;28;20439;-46
2022/06/09 02:10:44;;;;;;;1.80;0.77;;;14.60;99.90;;;;;;5097171;28;20442;-47
2022/06/09 02:13:19;;;;;;;1.20;0.70;;;14.60;99.90;;;;;;5097788;28;20427;-46
2022/06/09 02:15:49;;;;;;;1.70;1.00;;;14.60;99.90;;;;;;5097786;28;20477;-46
2022/06/09 02:18:24;;;;;;;2.77;1.10;;;14.60;99.90;;;;;;5096522;28;20704;-47
2022/06/09 02:21:02;;;;;;;4.10;0.90;;;14.60;99.90;;;;;;5097498;28;20422;-46
2022/06/09 02:23:29;;;;;;;2.83;0.80;;;14.70;99.90;;;;;;5096477;28;20414;-46
2022/06/09 02:25:54;;;;;;;1.47;0.80;;;14.70;99.90;;;;;;5095981;28;20415;-46
2022/06/09 02:28:20;;;;;;;1.73;1.03;;;14.70;99.90;;;;;;5096022;28;20518;-46
2022/06/09 02:30:46;;;;;;;1.83;0.87;;;14.70;99.90;;;;;;5096255;28;20192;-46
2022/06/09 02:33:11;;;;;;;1.63;0.70;;;14.80;99.90;;;;;;5096433;28;20187;-46
2022/06/09 02:35:37;;;;;;;2.50;0.83;;;14.70;99.90;;;;;;5096213;28;20843;-46
2022/06/09 02:38:04;;;;;;;3.20;0.80;;;14.70;99.90;;;;;;5097764;28;20183;-47
2022/06/09 02:40:31;;;;;;;1.00;0.63;;;14.70;99.90;;;;;;5101519;28;20176;-46
2022/06/09 02:42:57;;;;;;;2.30;1.03;;;14.70;99.90;;;;;;5101172;28;20426;-46
2022/06/09 02:45:23;;;;;;;1.53;0.80;;;14.70;99.90;;;;;;5100968;28;20432;-46
2022/06/09 02:47:49;;;;;;;3.30;1.03;;;14.60;99.90;;;;;;5100794;28;20423;-47
2022/06/09 02:50:15;;;;;;;1.20;0.83;;;14.60;99.90;;;;;;5100874;28;20417;-46
2022/06/09 02:52:43;;;;;;;1.90;0.90;;;14.70;99.90;;;;;;5100654;28;20526;-46
2022/06/09 02:55:10;;;;;;;1.60;0.80;;;14.70;99.90;;;;;;5100777;28;20803;-47
2022/06/09 02:57:36;;;;;;;1.30;0.90;;;14.70;99.90;;;;;;5099789;28;20871;-46
2022/06/09 03:00:04;;;;;;;0.90;0.60;;;14.80;99.90;;;;;;5100493;28;20493;-46
2022/06/09 03:02:30;;;;;;;2.20;0.80;;;14.80;99.90;;;;;;5100460;28;20423;-46
2022/06/09 03:04:55;;;;;;;1.03;0.77;;;14.80;99.90;;;;;;5100802;28;20425;-46
2022/06/09 03:07:24;;;;;;;1.20;1.00;;;14.80;99.90;;;;;;5100658;28;20181;-46
2022/06/09 03:09:50;;;;;;;3.63;1.13;;;14.80;99.90;;;;;;5100148;28;20173;-46
2022/06/09 03:12:16;;;;;;;1.60;0.80;;;14.80;99.90;;;;;;5100499;28;20441;-47
2022/06/09 03:14:42;;;;;;;2.93;1.13;;;14.90;99.90;;;;;;5099697;28;20419;-46
2022/06/09 03:17:08;;;;;;;1.20;0.90;;;14.90;99.90;;;;;;5099423;28;20694;-46
2022/06/09 03:19:35;;;;;;;1.73;1.00;;;14.90;99.90;;;;;;5099351;28;20233;-46
2022/06/09 03:22:01;;;;;;;1.87;0.93;;;14.90;99.90;;;;;;5099288;28;20438;-46
2022/06/09 03:24:27;;;;;;;4.30;1.33;;;14.80;99.90;;;;;;5098820;28;20419;-46
2022/06/09 03:26:52;;;;;;;1.53;0.87;;;14.70;99.90;;;;;;5099432;28;20598;-46
2022/06/09 03:29:19;;;;;;;1.23;0.90;;;14.70;99.90;;;;;;5098112;28;20232;-46
2022/06/09 03:31:46;;;;;;;1.60;1.17;;;14.70;99.90;;;;;;5100242;28;20272;-46
2022/06/09 03:34:12;;;;;;;1.63;1.40;;;14.70;99.90;;;;;;5099558;28;20431;-46
2022/06/09 03:36:38;;;;;;;2.13;1.20;;;14.80;99.90;;;;;;5100112;28;20464;-46
2022/06/09 03:39:04;;;;;;;3.40;1.10;;;14.70;99.90;;;;;;5098941;28;20411;-46
2022/06/09 03:41:29;;;;;;;2.30;1.20;;;14.70;99.90;;;;;;5098719;28;20633;-47
2022/06/09 03:43:55;;;;;;;2.77;1.10;;;14.70;99.90;;;;;;5098839;28;20182;-46
2022/06/09 03:46:21;;;;;;;2.13;1.37;;;14.70;99.90;;;;;;5097996;28;20181;-46
2022/06/09 03:48:46;;;;;;;2.30;1.60;;;14.60;99.90;;;;;;5098878;28;20238;-46
2022/06/09 03:51:12;;;;;;;3.10;1.43;;;14.60;99.90;;;;;;5097933;28;20223;-46
2022/06/09 03:53:39;;;;;;;2.33;1.30;;;14.60;99.90;;;;;;5098526;28;20195;-46
2022/06/09 03:56:07;;;;;;;3.00;1.43;;;14.60;99.90;;;;;;5098964;28;20208;-46
2022/06/09 03:58:33;;;;;;;8.70;1.70;;;14.50;99.90;;;;;;5097944;28;20434;-46
2022/06/09 04:00:58;;;;;;;5.73;2.50;;;14.50;99.90;;;;;;5099630;28;20429;-46
2022/06/09 04:03:24;;;;;;;3.80;1.50;;;14.50;99.90;;;;;;5098946;28;20197;-46
2022/06/09 04:05:49;;;;;;;2.03;1.40;;;14.50;99.90;;;;;;5096719;28;20273;-46
2022/06/09 04:08:15;;;;;;;1.90;1.30;;;14.60;99.90;;;;;;5097865;28;20314;-46
2022/06/09 04:10:41;;;;;;;3.40;1.50;;;14.60;99.90;;;;;;5097040;28;20205;-46
2022/06/09 04:13:06;;;;;;;5.43;2.23;;;14.60;99.90;;;;;;5097113;28;20185;-47
2022/06/09 04:15:32;;;;;;;1.80;1.60;;;14.60;99.90;;;;;;5096572;28;20198;-47
2022/06/09 04:17:57;;;;;;;2.73;2.00;;;14.60;99.90;;;;;;5097151;28;20199;-46
2022/06/09 04:20:25;;;;;;;3.10;1.87;;;14.60;99.90;;;;;;5098196;28;20598;-46
2022/06/09 04:22:51;;;;;;;4.57;2.17;;;14.60;99.90;;;;;;5097173;28;20536;-46
2022/06/09 04:25:18;;;;;;;2.60;1.83;;;14.70;99.90;;;;;;5096844;28;20419;-46
2022/06/09 04:27:44;;;;;;;2.50;1.50;;;14.60;99.90;;;;;;5096607;28;20445;-46
2022/06/09 04:30:11;;;;;;;2.30;2.07;;;14.60;99.90;;;;;;5097440;28;20956;-46
2022/06/09 04:32:36;;;;;;;2.90;1.70;;;14.70;99.90;;;;;;5097541;28;20922;-46
2022/06/09 04:35:03;;;;;;;2.80;2.43;;;14.60;99.90;;;;;;5097756;28;20438;-47
2022/06/09 04:38:02;;;;;;;3.40;2.07;;;14.60;99.90;;;;;;5097584;28;20582;-46
2022/06/09 04:40:21;;;;;;;2.93;2.10;;;14.60;99.90;;;;;;5094483;28;20427;-46
2022/06/09 04:42:46;;;;;;;4.07;2.20;;;14.50;99.90;;;;;;5097835;28;20438;-46
2022/06/09 04:45:14;;;;;;;3.30;2.10;;;14.50;99.90;;;;;;5098085;28;20205;-47
2022/06/09 04:47:40;;;;;;;4.47;2.23;;;14.50;99.90;;;;;;5097548;28;20229;-46
2022/06/09 04:50:07;;;;;;;3.10;2.10;;;14.50;99.90;;;;;;5086650;28;20455;-46
2022/06/09 04:52:33;;;;;;;3.37;1.70;;;14.50;99.90;;;;;;5084479;28;20768;-46
2022/06/09 04:54:59;;;;;;;4.47;1.93;;;14.50;99.90;;;;;;5076367;28;20418;-47
2022/06/09 04:57:25;;;;;;;3.20;1.40;;;14.50;99.90;;;;;;5076908;28;20266;-47
2022/06/09 04:59:50;;;;;;;3.00;1.63;;;14.60;99.90;;;;;;5075930;28;20275;-46
2022/06/09 05:02:16;;;;;;;3.93;2.30;;;14.60;99.90;;;;;;5074378;28;20181;-46
2022/06/09 05:04:42;;;;;;;4.20;2.10;;;14.60;99.90;;;;;;5075050;28;20166;-46
2022/06/09 05:07:08;;;;;;;3.57;2.07;;;14.60;99.90;;;;;;5075625;28;20563;-47
2022/06/09 05:09:33;;;;;;;2.20;1.97;;;14.60;99.90;;;;;;5076490;28;20181;-47
2022/06/09 05:11:59;;;;;;;2.97;2.10;;;14.70;99.90;;;;;;5076154;28;20520;-46
2022/06/09 05:14:25;;;;;;;6.90;2.30;;;14.80;99.90;;;;;;5075849;28;20256;-46
2022/06/09 05:16:50;;;;;;;3.97;2.17;;;14.90;99.90;;;;;;5077383;28;20197;-46
2022/06/09 05:19:16;;;;;;;3.97;1.93;;;15.00;99.90;;;;;;5076276;28;20178;-46
2022/06/09 05:21:42;;;;;;;2.60;1.77;;;15.20;99.90;;;;;;5076801;28;20186;-47
2022/06/09 05:24:07;;;;;;;4.30;2.67;;;15.40;99.90;;;;;;5076108;28;20567;-46
2022/06/09 05:26:33;;;;;;;5.30;1.67;;;15.60;99.90;;;;;;5076363;28;20205;-46
2022/06/09 05:28:59;;;;;;;2.90;1.83;;;15.70;99.90;;;;;;5075206;28;20244;-46
2022/06/09 05:31:24;;;;;;;3.33;1.77;;;15.80;99.30;;;;;;5075251;28;20204;-47
2022/06/09 05:33:50;;;;;;;4.37;1.70;;;15.90;98.80;;;;;;5074328;28;20185;-47
2022/06/09 05:36:16;;;;;;;4.80;2.07;;;15.90;98.90;;;;;;5075366;28;20201;-46
2022/06/09 05:46:59;;;;;;;4.73;1.87;;;16.10;97.70;;;;;;5074284;28;20434;-46
2022/06/09 05:49:24;;;;;;;6.10;1.67;;;16.10;97.00;;;;;;5073149;28;20510;-47
2022/06/09 05:51:52;;;;;;;4.20;1.70;;;16.00;96.90;;;;;;5072860;28;20268;-46
2022/06/09 05:54:20;;;;;;;4.03;2.20;;;16.00;97.00;;;;;;5074245;28;20294;-47
2022/06/09 05:56:46;;;;;;;5.43;1.83;;;16.00;97.20;;;;;;5073392;28;20463;-46
2022/06/09 05:59:12;;;;;;;4.00;1.90;;;15.90;96.80;;;;;;5073645;28;20431;-47
2022/06/09 06:01:38;;;;;;;1.73;1.60;;;16.00;97.00;;;;;;5073709;28;20200;-47
2022/06/09 06:04:06;;;;;;;3.77;1.50;;;15.90;96.80;;;;;;5075006;28;20424;-47
2022/06/09 06:06:34;;;;;;;4.93;2.10;;;16.10;97.10;;;;;;5074593;28;20526;-46
2022/06/09 06:09:02;;;;;;;2.40;1.80;;;16.30;97.00;;;;;;5073629;28;20423;-46
2022/06/09 06:11:28;;;;;;;5.93;2.37;;;16.50;96.60;;;;;;5075847;28;20420;-46
2022/06/09 06:13:54;;;;;;;3.73;1.30;;;16.60;96.30;;;;;;5074506;28;20554;-47
2022/06/09 06:16:22;;;;;;;4.80;1.70;;;16.80;96.10;;;;;;5073324;28;21040;-47
2022/06/09 06:18:48;;;;;;;5.10;1.73;;;16.80;95.20;;;;;;5075197;28;20472;-45
2022/06/09 06:21:15;;;;;;;5.23;1.70;;;16.70;95.00;;;;;;5075389;28;20411;-46
2022/06/09 06:23:41;;;;;;;7.03;1.80;;;16.70;94.90;;;;;;5075686;28;20447;-47
2022/06/09 06:26:07;;;;;;;3.10;1.40;;;16.70;95.10;;;;;;5073492;28;20411;-46
2022/06/09 06:28:33;;;;;;;4.43;1.60;;;16.70;95.40;;;;;;5071054;28;20340;-47
2022/06/09 06:30:58;;;;;;;5.30;1.97;;;16.80;95.10;;;;;;5073126;28;20420;-46
2022/06/09 06:33:25;;;;;;;3.53;1.83;;;16.80;94.90;;;;;;5073629;28;20193;-47
2022/06/09 06:35:50;;;;;;;4.50;2.10;;;16.90;95.00;;;;;;5072026;28;20315;-47
2022/06/09 06:38:16;;;;;;;1.87;1.50;;;17.20;94.40;;;;;;5071573;28;20929;-47
2022/06/09 06:40:42;;;;;;;3.30;2.00;;;17.60;94.10;;;;;;5072742;28;20307;-47
2022/06/09 06:43:08;;;;;;;2.57;1.30;;;18.00;93.70;;;;;;5072132;28;20182;-47
2022/06/09 06:45:34;;;;;;;3.20;1.80;;;18.40;92.20;;;;;;5072364;28;20412;-47
2022/06/09 06:48:00;;;;;;;4.10;1.57;;;18.80;91.70;;;;;;5071979;28;20431;-47
2022/06/09 06:50:26;;;;;;;4.37;1.97;;;18.90;90.40;;;;;;5074238;28;20170;-47
2022/06/09 06:52:52;;;;;;;5.07;2.30;;;18.80;90.20;;;;;;5074201;28;20284;-47
2022/06/09 06:55:20;;;;;;;6.30;2.00;;;18.30;90.30;;;;;;5074586;28;20452;-47
2022/06/09 06:57:46;;;;;;;3.80;1.60;;;17.90;90.30;;;;;;5073892;28;20762;-47
2022/06/09 07:00:15;;;;;;;2.60;1.47;;;17.60;90.80;;;;;;5072267;28;20408;-46
2022/06/09 07:02:41;;;;;;;2.80;1.40;;;17.40;91.40;;;;;;5072539;28;20419;-46
2022/06/09 07:05:08;;;;;;;2.90;1.43;;;17.10;91.10;;;;;;5072948;28;20415;-44
2022/06/09 07:07:37;;;;;;;3.83;1.67;;;16.90;91.40;;;;;;5072200;28;20833;-44
2022/06/09 07:10:04;;;;;;;4.67;2.17;;;16.80;91.80;;;;;;5073714;28;20485;-46
2022/06/09 07:12:30;;;;;;;5.27;1.40;;;16.90;91.80;;;;;;5075145;28;20717;-44
2022/06/09 07:14:56;;;;;;;5.17;1.63;;;17.00;91.80;;;;;;5074486;28;20416;-46
2022/06/09 07:17:21;;;;;;;1.97;1.00;;;17.20;91.60;;;;;;5073117;28;20471;-44
2022/06/09 07:19:47;;;;;;;6.30;2.07;;;17.30;91.30;;;;;;5073006;28;20177;-46
2022/06/09 07:22:13;;;;;;;5.73;1.63;;;17.60;91.50;;;;;;5072493;28;20206;-46
2022/06/09 07:24:38;;;;;;;4.97;1.73;;;17.90;91.30;;;;;;5075540;28;20174;-47
2022/06/09 07:27:05;;;;;;;6.43;2.73;;;18.10;90.50;;;;;;5077145;28;20215;-47
2022/06/09 07:29:32;;;;;;;5.13;2.00;;;18.10;90.00;;;;;;5077470;28;20639;-45
2022/06/09 07:31:58;;;;;;;2.13;1.00;;;18.30;90.10;;;;;;5077475;28;20526;-45
2022/06/09 07:34:24;;;;;;;3.70;1.40;;;18.40;89.30;;;;;;5076402;28;20906;-46
2022/06/09 07:36:49;;;;;;;9.83;1.57;;;18.30;87.30;;;;;;5075933;28;20574;-44
2022/06/09 07:39:15;;;;;;;3.30;1.27;;;18.20;87.40;;;;;;5077461;28;20175;-45
2022/06/09 07:41:41;;;;;;;2.87;1.33;;;18.30;87.30;;;;;;5076142;28;20255;-44
2022/06/09 07:44:08;;;;;;;6.80;2.53;;;18.50;87.10;;;;;;5074762;28;20170;-46
2022/06/09 07:46:34;;;;;;;3.23;1.73;;;18.50;85.80;;;;;;5076005;28;20174;-46
2022/06/09 07:49:01;;;;;;;4.80;1.77;;;18.60;85.20;;;;;;5076318;28;20426;-46
2022/06/09 07:51:28;;;;;;;5.73;1.90;;;18.70;84.80;;;;;;5077758;28;20884;-45
2022/06/09 07:53:54;;;;;;;3.83;1.60;;;18.80;83.80;;;;;;5076580;28;20439;-45
2022/06/09 07:56:19;;;;;;;4.63;1.67;;;19.10;82.60;;;;;;5077850;28;20470;-46
2022/06/09 07:58:45;;;;;;;3.83;1.67;;;19.20;81.80;;;;;;5077487;28;20424;-45
2022/06/09 08:01:11;;;;;;;4.10;1.30;;;19.20;82.00;;;;;;5076799;28;20174;-46
2022/06/09 08:03:40;;;;;;;3.33;1.20;;;19.40;81.30;;;;;;5075766;28;20432;-45
2022/06/09 08:06:06;;;;;;;4.20;1.60;;;19.60;80.60;;;;;;5076036;28;20444;-44
2022/06/09 08:08:33;;;;;;;2.93;1.10;;;19.70;80.30;;;;;;5077468;28;20434;-46
2022/06/09 08:10:59;;;;;;;2.93;1.17;;;19.90;79.30;;;;;;5076929;28;20421;-46
2022/06/09 08:13:25;;;;;;;4.20;1.30;;;20.00;78.80;;;;;;5075698;28;20470;-47
2022/06/09 08:15:50;;;;;;;3.27;1.40;;;20.10;78.50;;;;;;5075298;28;20695;-45
2022/06/09 08:18:16;;;;;;;5.13;1.30;;;20.30;76.60;;;;;;5074313;28;20185;-45
2022/06/09 08:20:43;;;;;;;2.10;0.90;;;20.70;77.20;;;;;;5075564;28;20208;-46
2022/06/09 08:23:21;;;;;;;4.10;1.23;;;21.10;75.20;;;;;;5074752;28;20477;-45
2022/06/09 08:25:48;;;;;;;4.00;1.67;;;21.30;72.80;;;;;;5076534;28;20706;-47
2022/06/09 08:28:18;;;;;;;3.60;1.40;;;21.60;73.10;;;;;;5073914;28;20439;-45
2022/06/09 08:30:45;;;;;;;7.37;1.23;;;21.50;72.10;;;;;;5075286;28;20427;-47
2022/06/09 08:33:11;;;;;;;3.10;1.30;;;21.20;71.50;;;;;;5074602;28;20428;-46
2022/06/09 08:35:36;;;;;;;1.77;0.83;;;21.20;71.90;;;;;;5075142;28;20508;-46
2022/06/09 08:38:03;;;;;;;4.63;1.37;;;21.50;71.30;;;;;;5075167;28;20200;-48
2022/06/09 08:41:00;;;;;;;2.70;1.33;;;21.70;70.40;;;;;;5075369;28;20633;-45
2022/06/09 08:43:46;;;;;;;2.20;0.80;;;21.70;68.20;;;;;;5073580;28;20430;-48
2022/06/09 08:46:34;;;;;;;2.13;1.00;;;21.50;68.90;;;;;;5075839;28;20898;-47
2022/06/09 08:49:02;;;;;;;3.53;1.20;;;21.90;67.40;;;;;;5069200;28;20732;-46
2022/06/09 08:51:43;;;;;;;2.47;1.17;;;21.90;66.20;;;;;;5073623;28;20540;-44
2022/06/09 08:54:23;;;;;;;2.43;1.07;;;22.30;65.00;;;;;;5074376;28;20591;-49
2022/06/09 08:56:50;;;;;;;4.27;1.20;;;22.50;65.20;;;;;;5076358;28;20554;-47
2022/06/09 08:59:22;;;;;;;1.93;1.10;;;22.40;63.70;;;;;;5075874;28;20509;-45
2022/06/09 09:02:01;;;;;;;4.80;1.30;;;22.50;61.80;;;;;;5074224;28;20416;-44
2022/06/09 09:04:34;;;;;;;3.30;1.53;;;22.80;61.80;;;;;;5074924;28;20726;-47
2022/06/09 09:07:26;;;;;;;3.10;1.20;;;23.20;60.90;;;;;;5072120;28;20442;-44
2022/06/09 09:10:16;;;;;;;3.10;1.27;;;23.50;59.00;;;;;;5075213;28;20568;-45
2022/06/09 09:12:44;;;;;;;2.63;1.47;;;23.50;57.80;;;;;;5075553;28;20672;-43
2022/06/09 09:15:15;;;;;;;4.57;1.23;;;24.00;57.70;;;;;;5075724;28;20478;-44
2022/06/09 09:18:11;;;;;;;2.60;1.10;;;24.10;56.90;;;;;;5076561;28;20735;-42
2022/06/09 09:20:54;;;;;;;3.90;1.40;;;24.00;56.40;;;;;;5075733;28;20422;-43
2022/06/09 09:23:38;;;;;;;2.77;1.30;;;24.00;57.40;;;;;;5075430;28;20635;-43
2022/06/09 09:26:12;;;;;;;5.80;1.20;;;23.50;56.10;;;;;;5073628;28;20419;-44
2022/06/09 09:29:24;;;;;;;3.73;1.23;;;23.40;57.20;;;;;;5071660;28;20475;-46
2022/06/09 09:31:55;;;;;;;3.13;1.07;;;23.80;57.90;;;;;;5070273;28;20425;-44
2022/06/09 09:34:29;;;;;;;1.83;0.90;;;24.30;55.60;;;;;;5075141;28;20522;-45
2022/06/09 09:36:59;;;;;;;2.57;0.90;;;24.30;55.60;;;;;;5073068;28;20896;-44
2022/06/09 09:39:49;;;;;;;3.87;1.27;;;24.40;55.40;;;;;;5073434;28;20408;-46
2022/06/09 09:42:18;;;;;;;3.27;1.17;;;24.10;55.50;;;;;;5073466;28;20536;-44
2022/06/09 09:45:00;;;;;;;3.70;1.40;;;23.70;54.80;;;;;;5074120;28;20562;-44
2022/06/09 09:47:27;;;;;;;2.40;0.90;;;23.00;55.70;;;;;;5073863;28;20436;-45
2022/06/09 09:49:59;;;;;;;4.37;1.10;;;22.50;57.10;;;;;;5072850;28;20422;-46
2022/06/09 09:52:44;;;;;;;3.77;1.27;;;21.90;57.60;;;;;;5070826;28;20541;-44
2022/06/09 09:55:33;;;;;;;2.43;1.20;;;21.70;58.60;;;;;;5075604;28;20674;-43
2022/06/09 09:58:21;;;;;;;2.90;1.03;;;22.10;58.60;;;;;;5075473;28;20474;-44
2022/06/09 10:00:51;;;;;;;1.90;0.90;;;22.40;56.90;;;;;;5074591;28;20508;-44
2022/06/09 10:09:18;;;;;;;2.60;1.17;;;22.10;57.50;;;;;;5072043;28;21010;-44
2022/06/09 10:11:56;;;;;;;2.80;0.90;;;21.60;56.90;;;;;;5074325;28;20644;-46
2022/06/09 10:14:47;;;;;;;3.00;1.27;;;21.20;56.10;;;;;;5073878;28;20518;-43
2022/06/09 10:17:37;;;;;;;2.43;0.90;;;21.10;55.80;;;;;;5074834;28;20893;-43
2022/06/09 10:20:22;;;;;;;2.63;1.27;;;21.50;55.50;;;;;;5089639;28;20532;-45
2022/06/09 10:23:11;;;;;;;1.83;1.10;;;22.40;55.60;;;;;;5083442;28;20417;-43
2022/06/09 10:25:40;;;;;;;3.33;1.30;;;23.30;54.90;;;;;;5087107;28;20416;-47
2022/06/09 10:28:40;;;;;;;2.07;1.00;;;24.20;53.90;;;;;;5084312;28;20427;-44
2022/06/09 10:31:32;;;;;;;1.50;1.00;;;25.00;51.70;;;;;;5082199;28;20441;-45
2022/06/09 10:34:39;;;;;;;2.23;1.30;;;25.00;50.70;;;;;;5095669;28;20908;-44
2022/06/09 10:37:24;;;;;;;4.33;1.27;;;24.90;50.50;;;;;;5094580;28;20480;-47
2022/06/09 10:40:07;;;;;;;2.10;1.00;;;24.90;51.00;;;;;;5094317;28;20413;-45
2022/06/09 10:42:57;;;;;;;3.23;0.90;;;25.00;51.20;;;;;;5091918;28;20432;-44
2022/06/09 10:45:27;;;;;;;3.17;1.00;;;24.70;47.80;;;;;;5091425;28;20824;-44
2022/06/09 10:57:09;;;;;;;1.77;1.00;;;23.90;52.00;;;;;;5079747;28;20497;-46
2022/06/09 10:59:41;;;;;;;2.20;1.30;;;24.30;48.50;;;;;;5077806;28;20423;-44
2022/06/09 11:02:19;;;;;;;4.13;1.60;;;24.00;48.70;;;;;;5078526;28;20817;-45
2022/06/09 11:04:45;;;;;;;2.90;1.40;;;23.40;49.60;;;;;;5078669;28;20409;-45
2022/06/09 11:07:42;;;;;;;3.10;1.50;;;23.10;51.30;;;;;;5079184;28;20437;-44
2022/06/09 11:10:32;;;;;;;2.97;1.30;;;22.60;52.40;;;;;;5077047;28;20711;-45
2022/06/09 11:13:22;;;;;;;4.50;1.30;;;22.20;53.10;;;;;;5076204;28;20428;-44
2022/06/09 11:16:00;;;;;;;2.03;1.30;;;21.80;53.90;;;;;;5075901;28;20507;-46
2022/06/09 11:18:36;;;;;;;4.87;1.60;;;21.70;54.60;;;;;;5077693;28;20468;-44
2022/06/09 11:21:19;;;;;;;2.60;1.23;;;21.40;53.50;;;;;;5079209;28;20412;-44
2022/06/09 11:24:05;;;;;;;3.90;1.50;;;21.00;54.20;;;;;;5079280;28;20888;-45
2022/06/09 11:26:34;;;;;;;5.57;1.37;;;21.00;55.60;;;;;;5079562;28;20481;-44
2022/06/09 11:29:16;;;;;;;3.03;1.60;;;21.90;57.10;;;;;;5076381;28;20476;-44
2022/06/09 11:32:01;;;;;;;4.20;1.77;;;22.70;55.80;;;;;;5076258;28;20422;-45
2022/06/09 11:34:42;;;;;;;2.63;1.10;;;23.10;54.70;;;;;;5076103;28;20416;-43
2022/06/09 11:37:28;;;;;;;2.20;0.90;;;22.70;51.40;;;;;;5075528;28;20556;-44
2022/06/09 11:40:14;;;;;;;4.40;1.40;;;21.90;51.20;;;;;;5076886;28;20419;-43
2022/06/09 11:43:14;;;;;;;3.17;1.10;;;21.90;53.40;;;;;;5077945;28;20421;-44
2022/06/09 11:45:51;;;;;;;3.30;1.10;;;22.20;52.40;;;;;;5077400;28;20543;-45
2022/06/09 11:48:40;;;;;;;2.80;1.40;;;22.80;51.30;;;;;;5076630;28;20418;-45
2022/06/09 11:51:06;;;;;;;3.13;1.37;;;23.60;53.50;;;;;;5077657;28;20503;-44
2022/06/09 11:53:37;;;;;;;4.40;1.40;;;24.40;53.50;;;;;;5078079;28;20434;-44
2022/06/09 11:56:40;;;;;;;1.90;1.10;;;25.00;51.60;;;;;;5076388;28;20456;-44
2022/06/09 11:59:11;;;;;;;2.77;1.20;;;25.50;48.00;;;;;;5076916;28;20418;-46
2022/06/09 12:01:40;;;;;;;3.27;1.20;;;25.50;47.50;;;;;;5077187;28;20408;-44
2022/06/09 12:04:17;;;;;;;3.00;1.43;;;25.40;48.20;;;;;;5076796;28;20469;-44
2022/06/09 12:06:43;;;;;;;2.23;1.33;;;25.30;47.50;;;;;;5076167;28;20420;-45
2022/06/09 12:09:19;;;;;;;6.27;1.63;;;25.70;48.70;;;;;;5076795;28;20409;-44
2022/06/09 12:12:28;;;;;;;5.70;1.83;;;26.10;47.20;;;;;;5076397;28;20259;-44
2022/06/09 12:15:19;;;;;;;2.60;1.40;;;25.90;47.30;;;;;;5049706;28;20771;-44
2022/06/09 12:17:57;;;;;;;3.73;1.30;;;25.90;47.40;;;;;;5075718;28;20485;-43
2022/06/09 12:20:40;;;;;;;2.37;1.37;;;26.20;47.70;;;;;;5076767;28;20410;-45
2022/06/09 12:23:28;;;;;;;3.50;1.50;;;26.70;47.60;;;;;;5077015;28;20422;-45
2022/06/09 12:26:18;;;;;;;2.43;1.40;;;26.70;47.00;;;;;;5076815;28;20875;-46
2022/06/09 12:28:53;;;;;;;4.70;2.00;;;26.50;47.80;;;;;;5068299;28;20700;-45
2022/06/09 12:31:30;;;;;;;2.70;1.60;;;26.70;48.20;;;;;;5075937;28;20493;-47
2022/06/09 12:34:06;;;;;;;5.20;1.53;;;26.80;46.50;;;;;;5074583;28;20767;-44
2022/06/09 12:36:46;;;;;;;2.00;1.30;;;26.70;46.80;;;;;;5071366;28;20557;-44
2022/06/09 12:39:22;;;;;;;1.67;1.20;;;26.70;45.30;;;;;;5072759;28;20719;-45
2022/06/09 12:41:57;;;;;;;1.77;0.80;;;27.00;44.90;;;;;;5074068;28;20399;-46
2022/06/09 12:44:23;;;;;;;3.13;1.30;;;27.30;43.80;;;;;;5071740;28;20526;-45
2022/06/09 12:46:58;;;;;;;1.73;1.03;;;27.60;43.50;;;;;;5072551;28;20459;-44
2022/06/09 12:49:33;;;;;;;1.90;1.30;;;27.60;42.90;;;;;;5073434;28;20186;-45
2022/06/09 12:51:59;;;;;;;3.97;1.10;;;27.50;43.10;;;;;;5072210;28;20727;-45
2022/06/09 12:54:37;;;;;;;4.60;1.60;;;27.60;43.80;;;;;;5072550;28;20437;-45
2022/06/09 12:57:24;;;;;;;3.77;1.33;;;27.30;44.40;;;;;;5070779;28;20216;-45
2022/06/09 13:00:07;;;;;;;2.50;1.70;;;27.70;44.70;;;;;;5072262;28;20381;-48
2022/06/09 13:02:37;;;;;;;2.80;1.20;;;27.70;44.90;;;;;;5071083;28;20794;-46
2022/06/09 13:05:34;;;;;;;3.10;1.40;;;27.60;43.90;;;;;;5073909;28;20404;-45
2022/06/09 13:08:11;;;;;;;6.40;1.30;;;27.70;43.20;;;;;;5074127;28;20855;-47
2022/06/09 13:10:38;;;;;;;2.67;1.20;;;28.00;43.20;;;;;;5072298;28;20434;-45
2022/06/09 13:13:22;;;;;;;2.97;1.20;;;28.40;42.70;;;;;;5071968;28;20485;-44
2022/06/09 13:16:00;;;;;;;3.13;1.20;;;28.60;42.00;;;;;;5055728;28;20403;-46
2022/06/09 13:18:33;;;;;;;2.20;1.00;;;28.80;41.30;;;;;;5073229;28;20590;-44
2022/06/09 13:21:14;;;;;;;1.90;0.90;;;28.60;41.50;;;;;;5075295;28;20423;-46
2022/06/09 13:23:42;;;;;;;2.57;1.30;;;28.70;42.30;;;;;;5072980;28;20481;-45
2022/06/09 13:26:13;;;;;;;3.50;1.47;;;28.40;41.50;;;;;;5072399;28;20859;-46
2022/06/09 13:28:46;;;;;;;2.00;1.10;;;27.40;41.70;;;;;;5070794;28;20471;-46
2022/06/09 13:31:30;;;;;;;5.20;1.63;;;26.30;43.00;;;;;;5073893;28;20414;-46
2022/06/09 13:34:03;;;;;;;2.17;1.43;;;25.20;45.70;;;;;;5075458;28;20862;-45
2022/06/09 13:36:35;;;;;;;3.43;1.33;;;24.80;45.80;;;;;;5074525;28;20636;-46